sensor_id;sensor_type;location;lat;lon;timestamp;P1;P2;P0
64631;PMS5003;58358;50.936;0.246;2023-04-06T00:00:09;28;26;
64631;PMS5003;58358;50.936;0.246;2023-04-06T00:02:34;49;46;
64631;PMS5003;58358;50.936;0.246;2023-04-06T00:04:59;27;26;
64631;PMS5003;58358;50.936;0.246;2023-04-06T00:07:25;25;24;
64631;PMS5003;58358;50.936;0.246;2023-04-06T00:09:51;37;34;
64631;PMS5003;58358;50.936;0.246;2023-04-06T00:12:15;28;26;
64631;PMS5003;58358;50.936;0.246;2023-04-06T00:14:41;31;28;
64631;PMS5003;58358;50.936;0.246;2023-04-06T00:17:07;33;32;
64631;PMS5003;58358;50.936;0.246;2023-04-06T00:19:33;37;35;
64631;PMS5003;58358;50.936;0.246;2023-04-06T00:21:58;41;35;
64631;PMS5003;58358;50.936;0.246;2023-04-06T00:24:23;28;28;
64631;PMS5003;58358;50.936;0.246;2023-04-06T00:26:49;25;24;
64631;PMS5003;58358;50.936;0.246;2023-04-06T00:29:14;24;24;
64631;PMS5003;58358;50.936;0.246;2023-04-06T00:31:39;26;26;
64631;PMS5003;58358;50.936;0.246;2023-04-06T00:34:05;32;30;
64631;PMS5003;58358;50.936;0.246;2023-04-06T00:36:30;27;26;
64631;PMS5003;58358;50.936;0.246;2023-04-06T00:38:56;35;33;
64631;PMS5003;58358;50.936;0.246;2023-04-06T00:41:22;30;30;
64631;PMS5003;58358;50.936;0.246;2023-04-06T00:43:47;31;28;
64631;PMS5003;58358;50.936;0.246;2023-04-06T00:46:13;28;26;
64631;PMS5003;58358;50.936;0.246;2023-04-06T00:48:39;33;33;
64631;PMS5003;58358;50.936;0.246;2023-04-06T00:51:04;28;27;
64631;PMS5003;58358;50.936;0.246;2023-04-06T00:53:29;28;27;
64631;PMS5003;58358;50.936;0.246;2023-04-06T00:55:54;30;30;
64631;PMS5003;58358;50.936;0.246;2023-04-06T00:58:19;25;25;
64631;PMS5003;58358;50.936;0.246;2023-04-06T01:00:45;35;30;
64631;PMS5003;58358;50.936;0.246;2023-04-06T01:03:10;32;30;
64631;PMS5003;58358;50.936;0.246;2023-04-06T01:05:36;28;28;
64631;PMS5003;58358;50.936;0.246;2023-04-06T01:08:01;27;27;
64631;PMS5003;58358;50.936;0.246;2023-04-06T01:10:27;26;22;
64631;PMS5003;58358;50.936;0.246;2023-04-06T01:12:52;22;21;
64631;PMS5003;58358;50.936;0.246;2023-04-06T01:15:18;23;22;
64631;PMS5003;58358;50.936;0.246;2023-04-06T01:17:43;20;20;
64631;PMS5003;58358;50.936;0.246;2023-04-06T01:20:08;20;20;
64631;PMS5003;58358;50.936;0.246;2023-04-06T01:22:34;18;17;
64631;PMS5003;58358;50.936;0.246;2023-04-06T01:24:59;18;17;
64631;PMS5003;58358;50.936;0.246;2023-04-06T01:27:25;16;16;
64631;PMS5003;58358;50.936;0.246;2023-04-06T01:29:50;18;17;
64631;PMS5003;58358;50.936;0.246;2023-04-06T01:32:16;16;13;
64631;PMS5003;58358;50.936;0.246;2023-04-06T01:34:41;16;16;
64631;PMS5003;58358;50.936;0.246;2023-04-06T01:37:07;15;15;
64631;PMS5003;58358;50.936;0.246;2023-04-06T01:39:32;14;14;
64631;PMS5003;58358;50.936;0.246;2023-04-06T01:41:57;11;11;
64631;PMS5003;58358;50.936;0.246;2023-04-06T01:44:23;12;11;
64631;PMS5003;58358;50.936;0.246;2023-04-06T01:46:49;10;10;
64631;PMS5003;58358;50.936;0.246;2023-04-06T01:49:15;11;11;
64631;PMS5003;58358;50.936;0.246;2023-04-06T01:51:41;17;17;
64631;PMS5003;58358;50.936;0.246;2023-04-06T01:54:06;12;12;
64631;PMS5003;58358;50.936;0.246;2023-04-06T01:56:32;14;12;
64631;PMS5003;58358;50.936;0.246;2023-04-06T01:58:58;14;14;
64631;PMS5003;58358;50.936;0.246;2023-04-06T02:01:24;17;15;
64631;PMS5003;58358;50.936;0.246;2023-04-06T02:03:49;14;12;
64631;PMS5003;58358;50.936;0.246;2023-04-06T02:06:15;11;10;
64631;PMS5003;58358;50.936;0.246;2023-04-06T02:08:41;12;12;
64631;PMS5003;58358;50.936;0.246;2023-04-06T02:11:07;12;10;
64631;PMS5003;58358;50.936;0.246;2023-04-06T02:13:33;12;12;
64631;PMS5003;58358;50.936;0.246;2023-04-06T02:15:58;14;12;
64631;PMS5003;58358;50.936;0.246;2023-04-06T02:18:24;13;12;
64631;PMS5003;58358;50.936;0.246;2023-04-06T02:20:49;13;12;
64631;PMS5003;58358;50.936;0.246;2023-04-06T02:23:15;12;9;
64631;PMS5003;58358;50.936;0.246;2023-04-06T02:25:41;11;11;
64631;PMS5003;58358;50.936;0.246;2023-04-06T02:28:07;13;13;
64631;PMS5003;58358;50.936;0.246;2023-04-06T02:30:32;14;14;
64631;PMS5003;58358;50.936;0.246;2023-04-06T02:32:58;15;15;
64631;PMS5003;58358;50.936;0.246;2023-04-06T02:35:24;13;11;
64631;PMS5003;58358;50.936;0.246;2023-04-06T02:37:48;15;15;
64631;PMS5003;58358;50.936;0.246;2023-04-06T02:40:14;17;15;
64631;PMS5003;58358;50.936;0.246;2023-04-06T02:42:40;17;17;
64631;PMS5003;58358;50.936;0.246;2023-04-06T02:45:06;17;14;
64631;PMS5003;58358;50.936;0.246;2023-04-06T02:47:32;15;15;
64631;PMS5003;58358;50.936;0.246;2023-04-06T02:49:57;18;16;
64631;PMS5003;58358;50.936;0.246;2023-04-06T02:52:22;16;16;
64631;PMS5003;58358;50.936;0.246;2023-04-06T02:54:48;16;15;
64631;PMS5003;58358;50.936;0.246;2023-04-06T02:57:13;19;18;
64631;PMS5003;58358;50.936;0.246;2023-04-06T02:59:39;16;15;
64631;PMS5003;58358;50.936;0.246;2023-04-06T03:02:05;16;16;
64631;PMS5003;58358;50.936;0.246;2023-04-06T03:04:30;14;14;
64631;PMS5003;58358;50.936;0.246;2023-04-06T03:06:56;15;15;
64631;PMS5003;58358;50.936;0.246;2023-04-06T03:09:22;12;12;
64631;PMS5003;58358;50.936;0.246;2023-04-06T03:11:48;11;11;
64631;PMS5003;58358;50.936;0.246;2023-04-06T03:14:13;10;9;
64631;PMS5003;58358;50.936;0.246;2023-04-06T03:16:39;10;10;
64631;PMS5003;58358;50.936;0.246;2023-04-06T03:19:05;11;11;
64631;PMS5003;58358;50.936;0.246;2023-04-06T03:21:31;16;16;
64631;PMS5003;58358;50.936;0.246;2023-04-06T03:23:56;13;13;
64631;PMS5003;58358;50.936;0.246;2023-04-06T03:26:22;11;11;
64631;PMS5003;58358;50.936;0.246;2023-04-06T03:28:47;15;13;
64631;PMS5003;58358;50.936;0.246;2023-04-06T03:31:13;17;14;
64631;PMS5003;58358;50.936;0.246;2023-04-06T03:33:38;19;18;
64631;PMS5003;58358;50.936;0.246;2023-04-06T03:36:04;20;18;
64631;PMS5003;58358;50.936;0.246;2023-04-06T03:38:29;18;17;
64631;PMS5003;58358;50.936;0.246;2023-04-06T03:40:54;19;19;
64631;PMS5003;58358;50.936;0.246;2023-04-06T03:43:20;24;22;
64631;PMS5003;58358;50.936;0.246;2023-04-06T03:45:46;15;15;
64631;PMS5003;58358;50.936;0.246;2023-04-06T03:48:11;19;17;
64631;PMS5003;58358;50.936;0.246;2023-04-06T03:50:37;17;16;
64631;PMS5003;58358;50.936;0.246;2023-04-06T03:53:02;19;19;
64631;PMS5003;58358;50.936;0.246;2023-04-06T03:55:28;17;17;
64631;PMS5003;58358;50.936;0.246;2023-04-06T03:57:53;15;15;
64631;PMS5003;58358;50.936;0.246;2023-04-06T04:00:19;14;14;
64631;PMS5003;58358;50.936;0.246;2023-04-06T04:02:44;12;12;
64631;PMS5003;58358;50.936;0.246;2023-04-06T04:05:10;15;13;
64631;PMS5003;58358;50.936;0.246;2023-04-06T04:07:35;14;11;
64631;PMS5003;58358;50.936;0.246;2023-04-06T04:10:01;9;9;
64631;PMS5003;58358;50.936;0.246;2023-04-06T04:12:27;12;12;
64631;PMS5003;58358;50.936;0.246;2023-04-06T04:14:53;15;15;
64631;PMS5003;58358;50.936;0.246;2023-04-06T04:17:18;12;10;
64631;PMS5003;58358;50.936;0.246;2023-04-06T04:19:44;12;12;
64631;PMS5003;58358;50.936;0.246;2023-04-06T04:22:09;16;13;
64631;PMS5003;58358;50.936;0.246;2023-04-06T04:24:35;13;13;
64631;PMS5003;58358;50.936;0.246;2023-04-06T04:27:01;11;11;
64631;PMS5003;58358;50.936;0.246;2023-04-06T04:29:27;12;12;
64631;PMS5003;58358;50.936;0.246;2023-04-06T04:31:53;9;9;
64631;PMS5003;58358;50.936;0.246;2023-04-06T04:34:19;14;14;
64631;PMS5003;58358;50.936;0.246;2023-04-06T04:36:44;11;10;
64631;PMS5003;58358;50.936;0.246;2023-04-06T04:39:10;11;10;
64631;PMS5003;58358;50.936;0.246;2023-04-06T04:41:36;10;10;
64631;PMS5003;58358;50.936;0.246;2023-04-06T04:44:01;11;11;
64631;PMS5003;58358;50.936;0.246;2023-04-06T04:46:27;12;12;
64631;PMS5003;58358;50.936;0.246;2023-04-06T04:48:52;13;11;
64631;PMS5003;58358;50.936;0.246;2023-04-06T04:51:17;12;12;
64631;PMS5003;58358;50.936;0.246;2023-04-06T04:53:43;9;9;
64631;PMS5003;58358;50.936;0.246;2023-04-06T04:56:09;11;10;
64631;PMS5003;58358;50.936;0.246;2023-04-06T04:58:34;12;12;
64631;PMS5003;58358;50.936;0.246;2023-04-06T05:01:00;12;10;
64631;PMS5003;58358;50.936;0.246;2023-04-06T05:03:26;11;11;
64631;PMS5003;58358;50.936;0.246;2023-04-06T05:05:52;14;13;
64631;PMS5003;58358;50.936;0.246;2023-04-06T05:08:17;13;12;
64631;PMS5003;58358;50.936;0.246;2023-04-06T05:10:43;10;10;
64631;PMS5003;58358;50.936;0.246;2023-04-06T05:13:08;11;11;
64631;PMS5003;58358;50.936;0.246;2023-04-06T05:15:34;13;13;
64631;PMS5003;58358;50.936;0.246;2023-04-06T05:18:00;19;15;
64631;PMS5003;58358;50.936;0.246;2023-04-06T05:20:25;14;13;
64631;PMS5003;58358;50.936;0.246;2023-04-06T05:22:51;14;13;
64631;PMS5003;58358;50.936;0.246;2023-04-06T05:25:17;13;13;
64631;PMS5003;58358;50.936;0.246;2023-04-06T05:27:43;13;13;
64631;PMS5003;58358;50.936;0.246;2023-04-06T05:30:09;12;12;
64631;PMS5003;58358;50.936;0.246;2023-04-06T05:32:34;17;14;
64631;PMS5003;58358;50.936;0.246;2023-04-06T05:34:59;20;18;
64631;PMS5003;58358;50.936;0.246;2023-04-06T05:37:25;14;14;
64631;PMS5003;58358;50.936;0.246;2023-04-06T05:39:51;13;11;
64631;PMS5003;58358;50.936;0.246;2023-04-06T05:42:17;13;13;
64631;PMS5003;58358;50.936;0.246;2023-04-06T05:44:42;19;15;
64631;PMS5003;58358;50.936;0.246;2023-04-06T05:47:08;15;15;
64631;PMS5003;58358;50.936;0.246;2023-04-06T05:49:33;19;18;
64631;PMS5003;58358;50.936;0.246;2023-04-06T05:51:58;21;20;
64631;PMS5003;58358;50.936;0.246;2023-04-06T05:54:24;21;21;
64631;PMS5003;58358;50.936;0.246;2023-04-06T05:56:49;26;25;
64631;PMS5003;58358;50.936;0.246;2023-04-06T05:59:15;33;31;
64631;PMS5003;58358;50.936;0.246;2023-04-06T06:01:41;25;23;
64631;PMS5003;58358;50.936;0.246;2023-04-06T06:04:06;26;25;
64631;PMS5003;58358;50.936;0.246;2023-04-06T06:06:31;23;22;
64631;PMS5003;58358;50.936;0.246;2023-04-06T06:08:56;29;23;
64631;PMS5003;58358;50.936;0.246;2023-04-06T06:11:22;24;23;
64631;PMS5003;58358;50.936;0.246;2023-04-06T06:13:47;26;24;
64631;PMS5003;58358;50.936;0.246;2023-04-06T06:16:12;23;23;
64631;PMS5003;58358;50.936;0.246;2023-04-06T06:18:38;23;20;
64631;PMS5003;58358;50.936;0.246;2023-04-06T06:21:03;29;27;
64631;PMS5003;58358;50.936;0.246;2023-04-06T06:23:29;21;18;
64631;PMS5003;58358;50.936;0.246;2023-04-06T06:25:55;17;17;
64631;PMS5003;58358;50.936;0.246;2023-04-06T06:28:20;23;21;
64631;PMS5003;58358;50.936;0.246;2023-04-06T06:30:45;26;25;
64631;PMS5003;58358;50.936;0.246;2023-04-06T06:33:11;20;18;
64631;PMS5003;58358;50.936;0.246;2023-04-06T06:35:37;20;20;
64631;PMS5003;58358;50.936;0.246;2023-04-06T06:38:02;23;20;
64631;PMS5003;58358;50.936;0.246;2023-04-06T06:40:28;33;32;
64631;PMS5003;58358;50.936;0.246;2023-04-06T06:42:53;22;22;
64631;PMS5003;58358;50.936;0.246;2023-04-06T06:45:19;22;22;
64631;PMS5003;58358;50.936;0.246;2023-04-06T06:47:44;36;32;
64631;PMS5003;58358;50.936;0.246;2023-04-06T06:50:09;27;26;
64631;PMS5003;58358;50.936;0.246;2023-04-06T06:52:35;28;26;
64631;PMS5003;58358;50.936;0.246;2023-04-06T06:55:01;25;24;
64631;PMS5003;58358;50.936;0.246;2023-04-06T06:57:27;21;20;
64631;PMS5003;58358;50.936;0.246;2023-04-06T06:59:52;21;21;
64631;PMS5003;58358;50.936;0.246;2023-04-06T07:02:17;29;27;
64631;PMS5003;58358;50.936;0.246;2023-04-06T07:04:42;24;24;
64631;PMS5003;58358;50.936;0.246;2023-04-06T07:07:08;27;26;
64631;PMS5003;58358;50.936;0.246;2023-04-06T07:09:34;27;25;
64631;PMS5003;58358;50.936;0.246;2023-04-06T07:11:59;37;33;
64631;PMS5003;58358;50.936;0.246;2023-04-06T07:14:24;26;18;
64631;PMS5003;58358;50.936;0.246;2023-04-06T07:16:50;27;22;
64631;PMS5003;58358;50.936;0.246;2023-04-06T07:19:15;31;23;
64631;PMS5003;58358;50.936;0.246;2023-04-06T07:21:40;23;22;
64631;PMS5003;58358;50.936;0.246;2023-04-06T07:24:05;27;27;
64631;PMS5003;58358;50.936;0.246;2023-04-06T07:26:30;24;24;
64631;PMS5003;58358;50.936;0.246;2023-04-06T07:28:55;28;26;
64631;PMS5003;58358;50.936;0.246;2023-04-06T07:31:21;19;19;
64631;PMS5003;58358;50.936;0.246;2023-04-06T07:33:46;20;18;
64631;PMS5003;58358;50.936;0.246;2023-04-06T07:36:12;22;21;
64631;PMS5003;58358;50.936;0.246;2023-04-06T07:38:37;20;18;
64631;PMS5003;58358;50.936;0.246;2023-04-06T07:41:03;18;17;
64631;PMS5003;58358;50.936;0.246;2023-04-06T07:43:28;19;18;
64631;PMS5003;58358;50.936;0.246;2023-04-06T07:45:54;23;21;
64631;PMS5003;58358;50.936;0.246;2023-04-06T07:48:20;23;18;
64631;PMS5003;58358;50.936;0.246;2023-04-06T07:50:46;18;17;
64631;PMS5003;58358;50.936;0.246;2023-04-06T07:53:11;25;23;
64631;PMS5003;58358;50.936;0.246;2023-04-06T07:55:37;18;17;
64631;PMS5003;58358;50.936;0.246;2023-04-06T07:58:02;17;16;
64631;PMS5003;58358;50.936;0.246;2023-04-06T08:00:29;18;18;
64631;PMS5003;58358;50.936;0.246;2023-04-06T08:02:54;18;18;
64631;PMS5003;58358;50.936;0.246;2023-04-06T08:05:20;14;14;
64631;PMS5003;58358;50.936;0.246;2023-04-06T08:07:45;18;15;
64631;PMS5003;58358;50.936;0.246;2023-04-06T08:10:11;18;16;
64631;PMS5003;58358;50.936;0.246;2023-04-06T08:12:36;18;17;
64631;PMS5003;58358;50.936;0.246;2023-04-06T08:15:02;14;14;
64631;PMS5003;58358;50.936;0.246;2023-04-06T08:17:27;18;16;
64631;PMS5003;58358;50.936;0.246;2023-04-06T08:19:52;21;20;
64631;PMS5003;58358;50.936;0.246;2023-04-06T08:22:17;14;14;
64631;PMS5003;58358;50.936;0.246;2023-04-06T08:24:43;15;14;
64631;PMS5003;58358;50.936;0.246;2023-04-06T08:27:09;14;14;
64631;PMS5003;58358;50.936;0.246;2023-04-06T08:29:34;13;12;
64631;PMS5003;58358;50.936;0.246;2023-04-06T08:32:00;18;16;
64631;PMS5003;58358;50.936;0.246;2023-04-06T08:34:25;13;12;
64631;PMS5003;58358;50.936;0.246;2023-04-06T08:36:51;9;9;
64631;PMS5003;58358;50.936;0.246;2023-04-06T08:39:17;14;12;
64631;PMS5003;58358;50.936;0.246;2023-04-06T08:41:43;8;7;
64631;PMS5003;58358;50.936;0.246;2023-04-06T08:44:08;10;9;
64631;PMS5003;58358;50.936;0.246;2023-04-06T08:46:34;9;9;
64631;PMS5003;58358;50.936;0.246;2023-04-06T08:49:00;12;10;
64631;PMS5003;58358;50.936;0.246;2023-04-06T08:51:26;6;6;
64631;PMS5003;58358;50.936;0.246;2023-04-06T08:53:51;6;6;
64631;PMS5003;58358;50.936;0.246;2023-04-06T08:56:17;7;7;
64631;PMS5003;58358;50.936;0.246;2023-04-06T08:58:42;7;7;
64631;PMS5003;58358;50.936;0.246;2023-04-06T09:01:09;7;7;
64631;PMS5003;58358;50.936;0.246;2023-04-06T09:03:35;8;7;
64631;PMS5003;58358;50.936;0.246;2023-04-06T09:05:59;7;7;
64631;PMS5003;58358;50.936;0.246;2023-04-06T09:08:25;6;6;
64631;PMS5003;58358;50.936;0.246;2023-04-06T09:10:52;6;6;
64631;PMS5003;58358;50.936;0.246;2023-04-06T09:13:17;8;8;
64631;PMS5003;58358;50.936;0.246;2023-04-06T09:15:43;5;4;
64631;PMS5003;58358;50.936;0.246;2023-04-06T09:18:08;2;2;
64631;PMS5003;58358;50.936;0.246;2023-04-06T09:20:34;9;5;
64631;PMS5003;58358;50.936;0.246;2023-04-06T09:23:00;6;6;
64631;PMS5003;58358;50.936;0.246;2023-04-06T09:25:26;4;4;
64631;PMS5003;58358;50.936;0.246;2023-04-06T09:30:17;4;4;
64631;PMS5003;58358;50.936;0.246;2023-04-06T09:32:44;7;5;
64631;PMS5003;58358;50.936;0.246;2023-04-06T09:35:08;7;7;
64631;PMS5003;58358;50.936;0.246;2023-04-06T09:37:34;5;5;
64631;PMS5003;58358;50.936;0.246;2023-04-06T09:40:02;4;4;
64631;PMS5003;58358;50.936;0.246;2023-04-06T09:42:25;4;4;
64631;PMS5003;58358;50.936;0.246;2023-04-06T09:44:51;5;5;
64631;PMS5003;58358;50.936;0.246;2023-04-06T09:47:16;4;3;
64631;PMS5003;58358;50.936;0.246;2023-04-06T09:49:42;4;3;
64631;PMS5003;58358;50.936;0.246;2023-04-06T09:52:08;34;33;
64631;PMS5003;58358;50.936;0.246;2023-04-06T09:54:34;5;4;
64631;PMS5003;58358;50.936;0.246;2023-04-06T09:57:03;2;2;
64631;PMS5003;58358;50.936;0.246;2023-04-06T09:59:27;4;4;
64631;PMS5003;58358;50.936;0.246;2023-04-06T10:01:51;7;7;
64631;PMS5003;58358;50.936;0.246;2023-04-06T10:04:20;6;4;
64631;PMS5003;58358;50.936;0.246;2023-04-06T10:06:42;7;6;
64631;PMS5003;58358;50.936;0.246;2023-04-06T10:09:08;7;6;
64631;PMS5003;58358;50.936;0.246;2023-04-06T10:11:34;4;4;
64631;PMS5003;58358;50.936;0.246;2023-04-06T10:13:59;10;5;
64631;PMS5003;58358;50.936;0.246;2023-04-06T10:16:25;8;6;
64631;PMS5003;58358;50.936;0.246;2023-04-06T10:18:52;7;6;
64631;PMS5003;58358;50.936;0.246;2023-04-06T10:21:18;5;4;
64631;PMS5003;58358;50.936;0.246;2023-04-06T10:23:43;5;5;
64631;PMS5003;58358;50.936;0.246;2023-04-06T10:26:12;5;5;
64631;PMS5003;58358;50.936;0.246;2023-04-06T10:28:33;6;5;
64631;PMS5003;58358;50.936;0.246;2023-04-06T10:30:59;5;4;
64631;PMS5003;58358;50.936;0.246;2023-04-06T10:33:24;6;6;
64631;PMS5003;58358;50.936;0.246;2023-04-06T10:35:50;6;6;
64631;PMS5003;58358;50.936;0.246;2023-04-06T10:38:16;5;5;
64631;PMS5003;58358;50.936;0.246;2023-04-06T10:40:42;4;3;
64631;PMS5003;58358;50.936;0.246;2023-04-06T10:43:08;5;4;
64631;PMS5003;58358;50.936;0.246;2023-04-06T10:45:32;8;8;
64631;PMS5003;58358;50.936;0.246;2023-04-06T10:47:58;8;8;
64631;PMS5003;58358;50.936;0.246;2023-04-06T10:50:24;7;7;
64631;PMS5003;58358;50.936;0.246;2023-04-06T10:55:16;5;5;
64631;PMS5003;58358;50.936;0.246;2023-04-06T10:57:41;7;5;
64631;PMS5003;58358;50.936;0.246;2023-04-06T11:00:07;9;7;
64631;PMS5003;58358;50.936;0.246;2023-04-06T11:02:32;8;5;
64631;PMS5003;58358;50.936;0.246;2023-04-06T11:04:57;12;8;
64631;PMS5003;58358;50.936;0.246;2023-04-06T11:07:23;7;6;
64631;PMS5003;58358;50.936;0.246;2023-04-06T11:09:49;8;7;
64631;PMS5003;58358;50.936;0.246;2023-04-06T11:14:40;8;8;
64631;PMS5003;58358;50.936;0.246;2023-04-06T11:17:05;7;7;
64631;PMS5003;58358;50.936;0.246;2023-04-06T11:19:31;7;6;
64631;PMS5003;58358;50.936;0.246;2023-04-06T11:21:56;8;7;
64631;PMS5003;58358;50.936;0.246;2023-04-06T11:24:23;5;5;
64631;PMS5003;58358;50.936;0.246;2023-04-06T11:26:48;6;6;
64631;PMS5003;58358;50.936;0.246;2023-04-06T11:29:15;6;6;
64631;PMS5003;58358;50.936;0.246;2023-04-06T11:31:40;8;8;
64631;PMS5003;58358;50.936;0.246;2023-04-06T11:34:08;6;5;
64631;PMS5003;58358;50.936;0.246;2023-04-06T11:36:30;4;4;
64631;PMS5003;58358;50.936;0.246;2023-04-06T11:38:56;8;5;
64631;PMS5003;58358;50.936;0.246;2023-04-06T11:41:23;5;4;
64631;PMS5003;58358;50.936;0.246;2023-04-06T11:43:47;8;6;
64631;PMS5003;58358;50.936;0.246;2023-04-06T11:46:16;6;5;
64631;PMS5003;58358;50.936;0.246;2023-04-06T11:51:04;5;5;
64631;PMS5003;58358;50.936;0.246;2023-04-06T11:53:30;4;4;
64631;PMS5003;58358;50.936;0.246;2023-04-06T11:55:55;7;6;
64631;PMS5003;58358;50.936;0.246;2023-04-06T11:58:21;4;4;
64631;PMS5003;58358;50.936;0.246;2023-04-06T12:00:46;4;4;
64631;PMS5003;58358;50.936;0.246;2023-04-06T12:03:12;6;5;
64631;PMS5003;58358;50.936;0.246;2023-04-06T12:05:38;7;5;
64631;PMS5003;58358;50.936;0.246;2023-04-06T12:08:04;3;3;
64631;PMS5003;58358;50.936;0.246;2023-04-06T12:10:29;5;5;
64631;PMS5003;58358;50.936;0.246;2023-04-06T12:12:55;6;6;
64631;PMS5003;58358;50.936;0.246;2023-04-06T12:15:20;5;5;
64631;PMS5003;58358;50.936;0.246;2023-04-06T12:17:46;8;5;
64631;PMS5003;58358;50.936;0.246;2023-04-06T12:20:12;7;6;
64631;PMS5003;58358;50.936;0.246;2023-04-06T12:22:37;5;5;
64631;PMS5003;58358;50.936;0.246;2023-04-06T12:25:03;5;5;
64631;PMS5003;58358;50.936;0.246;2023-04-06T12:27:29;8;5;
64631;PMS5003;58358;50.936;0.246;2023-04-06T12:29:55;10;5;
64631;PMS5003;58358;50.936;0.246;2023-04-06T12:32:20;7;5;
64631;PMS5003;58358;50.936;0.246;2023-04-06T12:34:46;6;6;
64631;PMS5003;58358;50.936;0.246;2023-04-06T12:37:12;4;4;
64631;PMS5003;58358;50.936;0.246;2023-04-06T12:39:37;4;4;
64631;PMS5003;58358;50.936;0.246;2023-04-06T12:42:03;6;4;
64631;PMS5003;58358;50.936;0.246;2023-04-06T12:44:29;6;6;
64631;PMS5003;58358;50.936;0.246;2023-04-06T12:46:54;7;3;
64631;PMS5003;58358;50.936;0.246;2023-04-06T12:49:20;5;5;
64631;PMS5003;58358;50.936;0.246;2023-04-06T12:51:46;5;5;
64631;PMS5003;58358;50.936;0.246;2023-04-06T12:54:11;4;4;
64631;PMS5003;58358;50.936;0.246;2023-04-06T12:56:38;4;4;
64631;PMS5003;58358;50.936;0.246;2023-04-06T12:59:03;3;3;
64631;PMS5003;58358;50.936;0.246;2023-04-06T13:01:28;3;3;
64631;PMS5003;58358;50.936;0.246;2023-04-06T13:03:55;3;3;
64631;PMS5003;58358;50.936;0.246;2023-04-06T13:06:20;5;5;
64631;PMS5003;58358;50.936;0.246;2023-04-06T13:08:45;3;3;
64631;PMS5003;58358;50.936;0.246;2023-04-06T13:11:11;5;4;
64631;PMS5003;58358;50.936;0.246;2023-04-06T13:13:37;4;4;
64631;PMS5003;58358;50.936;0.246;2023-04-06T13:16:04;5;5;
64631;PMS5003;58358;50.936;0.246;2023-04-06T13:18:28;3;3;
64631;PMS5003;58358;50.936;0.246;2023-04-06T13:20:54;5;5;
64631;PMS5003;58358;50.936;0.246;2023-04-06T13:23:19;6;6;
64631;PMS5003;58358;50.936;0.246;2023-04-06T13:25:45;6;6;
64631;PMS5003;58358;50.936;0.246;2023-04-06T13:28:10;4;4;
64631;PMS5003;58358;50.936;0.246;2023-04-06T13:30:36;5;5;
64631;PMS5003;58358;50.936;0.246;2023-04-06T13:33:02;4;4;
64631;PMS5003;58358;50.936;0.246;2023-04-06T13:35:27;3;3;
64631;PMS5003;58358;50.936;0.246;2023-04-06T13:37:53;5;5;
64631;PMS5003;58358;50.936;0.246;2023-04-06T13:40:19;5;5;
64631;PMS5003;58358;50.936;0.246;2023-04-06T13:42:45;6;6;
64631;PMS5003;58358;50.936;0.246;2023-04-06T13:45:10;7;7;
64631;PMS5003;58358;50.936;0.246;2023-04-06T13:47:36;8;8;
64631;PMS5003;58358;50.936;0.246;2023-04-06T13:50:02;6;6;
64631;PMS5003;58358;50.936;0.246;2023-04-06T13:52:27;4;4;
64631;PMS5003;58358;50.936;0.246;2023-04-06T13:54:53;6;6;
64631;PMS5003;58358;50.936;0.246;2023-04-06T13:57:18;8;7;
64631;PMS5003;58358;50.936;0.246;2023-04-06T13:59:44;7;6;
64631;PMS5003;58358;50.936;0.246;2023-04-06T14:02:10;7;7;
64631;PMS5003;58358;50.936;0.246;2023-04-06T14:04:35;8;5;
64631;PMS5003;58358;50.936;0.246;2023-04-06T14:07:01;7;7;
64631;PMS5003;58358;50.936;0.246;2023-04-06T14:09:26;6;6;
64631;PMS5003;58358;50.936;0.246;2023-04-06T14:11:52;9;6;
64631;PMS5003;58358;50.936;0.246;2023-04-06T14:14:18;9;8;
64631;PMS5003;58358;50.936;0.246;2023-04-06T14:16:43;12;10;
64631;PMS5003;58358;50.936;0.246;2023-04-06T14:19:09;8;8;
64631;PMS5003;58358;50.936;0.246;2023-04-06T14:21:34;8;8;
64631;PMS5003;58358;50.936;0.246;2023-04-06T14:24:00;6;6;
64631;PMS5003;58358;50.936;0.246;2023-04-06T14:26:26;3;3;
64631;PMS5003;58358;50.936;0.246;2023-04-06T14:28:52;3;3;
64631;PMS5003;58358;50.936;0.246;2023-04-06T14:31:17;12;10;
64631;PMS5003;58358;50.936;0.246;2023-04-06T14:33:43;8;6;
64631;PMS5003;58358;50.936;0.246;2023-04-06T14:36:08;4;3;
64631;PMS5003;58358;50.936;0.246;2023-04-06T14:38:34;2;2;
64631;PMS5003;58358;50.936;0.246;2023-04-06T14:41:00;2;2;
64631;PMS5003;58358;50.936;0.246;2023-04-06T14:43:25;2;2;
64631;PMS5003;58358;50.936;0.246;2023-04-06T14:45:51;3;3;
64631;PMS5003;58358;50.936;0.246;2023-04-06T14:48:17;5;5;
64631;PMS5003;58358;50.936;0.246;2023-04-06T14:53:08;4;4;
64631;PMS5003;58358;50.936;0.246;2023-04-06T14:55:38;6;5;
64631;PMS5003;58358;50.936;0.246;2023-04-06T14:57:59;7;6;
64631;PMS5003;58358;50.936;0.246;2023-04-06T15:00:25;5;5;
64631;PMS5003;58358;50.936;0.246;2023-04-06T15:02:50;4;4;
64631;PMS5003;58358;50.936;0.246;2023-04-06T15:05:16;5;5;
64631;PMS5003;58358;50.936;0.246;2023-04-06T15:07:42;7;5;
64631;PMS5003;58358;50.936;0.246;2023-04-06T15:10:08;7;7;
64631;PMS5003;58358;50.936;0.246;2023-04-06T15:12:35;6;6;
64631;PMS5003;58358;50.936;0.246;2023-04-06T15:14:59;5;4;
64631;PMS5003;58358;50.936;0.246;2023-04-06T15:17:24;4;4;
64631;PMS5003;58358;50.936;0.246;2023-04-06T15:19:50;4;4;
64631;PMS5003;58358;50.936;0.246;2023-04-06T15:22:16;7;5;
64631;PMS5003;58358;50.936;0.246;2023-04-06T15:24:42;28;28;
64631;PMS5003;58358;50.936;0.246;2023-04-06T15:27:07;9;7;
64631;PMS5003;58358;50.936;0.246;2023-04-06T15:29:33;11;10;
64631;PMS5003;58358;50.936;0.246;2023-04-06T15:31:59;11;10;
64631;PMS5003;58358;50.936;0.246;2023-04-06T15:34:25;11;10;
64631;PMS5003;58358;50.936;0.246;2023-04-06T15:36:50;16;15;
64631;PMS5003;58358;50.936;0.246;2023-04-06T15:39:16;18;18;
64631;PMS5003;58358;50.936;0.246;2023-04-06T15:41:41;18;18;
64631;PMS5003;58358;50.936;0.246;2023-04-06T15:44:07;28;25;
64631;PMS5003;58358;50.936;0.246;2023-04-06T15:46:32;18;15;
64631;PMS5003;58358;50.936;0.246;2023-04-06T15:48:58;28;26;
64631;PMS5003;58358;50.936;0.246;2023-04-06T15:51:23;31;31;
64631;PMS5003;58358;50.936;0.246;2023-04-06T15:53:48;17;17;
64631;PMS5003;58358;50.936;0.246;2023-04-06T15:56:14;14;14;
64631;PMS5003;58358;50.936;0.246;2023-04-06T15:58:39;11;11;
64631;PMS5003;58358;50.936;0.246;2023-04-06T16:01:11;4;4;
64631;PMS5003;58358;50.936;0.246;2023-04-06T16:03:31;5;5;
64631;PMS5003;58358;50.936;0.246;2023-04-06T16:05:56;5;4;
64631;PMS5003;58358;50.936;0.246;2023-04-06T16:08:22;2;2;
64631;PMS5003;58358;50.936;0.246;2023-04-06T16:10:48;3;3;
64631;PMS5003;58358;50.936;0.246;2023-04-06T16:13:14;3;3;
64631;PMS5003;58358;50.936;0.246;2023-04-06T16:15:39;5;3;
64631;PMS5003;58358;50.936;0.246;2023-04-06T16:18:05;6;6;
64631;PMS5003;58358;50.936;0.246;2023-04-06T16:20:31;9;8;
64631;PMS5003;58358;50.936;0.246;2023-04-06T16:22:56;22;21;
64631;PMS5003;58358;50.936;0.246;2023-04-06T16:25:22;9;9;
64631;PMS5003;58358;50.936;0.246;2023-04-06T16:27:47;10;9;
64631;PMS5003;58358;50.936;0.246;2023-04-06T16:30:13;12;11;